Time;durP1;ratioP1;P1;durP2;ratioP2;P2;SDS_P1;SDS_P2;PMS_P1;PMS_P2;Temp;Humidity;BMP_temperature;BMP_pressure;BME280_temperature;BME280_humidity;BME280_pressure;Samples;Min_cycle;Max_cycle;Signal;HPM_P1;HPM_P2
2021/11/13 00:01:50;;;;;;;;;;;;;;;22.23;30.28;98492.31;4911307;29;905;-79
2021/11/13 00:04:15;;;;;;;;;;;;;;;22.15;30.50;98490.84;4882055;29;1962;-79
2021/11/13 00:06:41;;;;;;;;;;;;;;;22.58;29.98;98489.91;4876709;29;821;-78
2021/11/13 00:09:06;;;;;;;;;;;;;;;22.84;29.46;98488.06;4935938;29;1021;-78
2021/11/13 00:11:32;;;;;;;;;;;;;;;22.68;29.21;98488.84;4949049;29;1025;-79
2021/11/13 00:14:01;;;;;;;;;;;;;;;22.43;29.70;98489.41;4965428;29;928;-78
2021/11/13 00:16:27;;;;;;;;;;;;;;;22.26;29.76;98491.41;4929542;29;944;-78
2021/11/13 00:18:52;;;;;;;;;;;;;;;22.36;29.54;98490.38;4927230;29;965;-78
2021/11/13 00:21:18;;;;;;;;;;;;;;;22.01;30.08;98491.09;4930025;29;854;-77
2021/11/13 00:23:43;;;;;;;;;;;;;;;22.26;29.85;98485.75;4909712;29;1883;-78
2021/11/13 00:26:08;;;;;;;;;;;;;;;22.52;30.35;98498.13;4930467;29;871;-78
2021/11/13 00:28:34;;;;;;;;;;;;;;;22.72;30.00;98483.09;4929357;29;882;-78
2021/11/13 00:30:59;;;;;;;;;;;;;;;22.47;30.00;98486.50;4968689;29;937;-78
2021/11/13 00:33:25;;;;;;;;;;;;;;;22.35;29.79;98483.13;4964994;29;966;-78
2021/11/13 00:35:54;;;;;;;;;;;;;;;22.11;30.01;98478.78;4968147;29;980;-79
2021/11/13 00:38:20;;;;;;;;;;;;;;;22.54;30.24;98472.97;4948426;29;934;-78
2021/11/13 00:40:46;;;;;;;;;;;;;;;22.70;29.74;98486.38;4967809;29;844;-78
2021/11/13 00:43:11;;;;;;;;;;;;;;;22.75;29.61;98471.69;4994684;28;1914;-78
2021/11/13 00:45:37;;;;;;;;;;;;;;;22.88;29.64;98468.97;5005252;28;766;-78
2021/11/13 00:48:02;;;;;;;;;;;;;;;22.58;29.42;98470.84;5035595;28;948;-78
2021/11/13 00:50:29;;;;;;;;;;;;;;;22.28;29.89;98476.81;5044897;28;1074;-78
2021/11/13 00:52:55;;;;;;;;;;;;;;;22.20;30.19;98476.16;5044932;28;1250;-78
2021/11/13 00:55:20;;;;;;;;;;;;;;;22.33;29.87;98474.25;5024285;28;972;-78
2021/11/13 00:57:46;;;;;;;;;;;;;;;22.50;29.91;98477.13;4984756;28;1532;-78
2021/11/13 01:00:12;;;;;;;;;;;;;;;22.29;30.25;98479.22;4984487;28;916;-79
2021/11/13 01:02:38;;;;;;;;;;;;;;;22.34;30.12;98480.72;4967280;29;982;-79
2021/11/13 01:05:04;;;;;;;;;;;;;;;22.32;30.07;98478.31;4965370;29;1922;-78
2021/11/13 01:07:30;;;;;;;;;;;;;;;22.39;30.12;98482.25;4967869;29;954;-78
2021/11/13 01:09:55;;;;;;;;;;;;;;;22.32;30.27;98475.47;4964542;29;1276;-78
2021/11/13 01:12:21;;;;;;;;;;;;;;;22.25;30.49;98472.81;4967014;29;886;-79
2021/11/13 01:14:46;;;;;;;;;;;;;;;22.23;30.39;98477.34;4964464;29;956;-78
2021/11/13 01:17:12;;;;;;;;;;;;;;;22.51;30.25;98473.84;4966964;29;914;-79
2021/11/13 01:19:40;;;;;;;;;;;;;;;22.58;29.91;98465.16;4945622;29;1113;-78
2021/11/13 01:22:06;;;;;;;;;;;;;;;22.62;29.98;98467.94;4947709;29;897;-78
2021/11/13 01:24:31;;;;;;;;;;;;;;;22.26;30.08;98468.72;4945834;29;1970;-78
2021/11/13 01:26:57;;;;;;;;;;;;;;;22.30;29.87;98466.63;4961828;29;1019;-78
2021/11/13 01:29:22;;;;;;;;;;;;;;;22.44;30.00;98461.88;4964324;29;984;-78
2021/11/13 01:31:47;;;;;;;;;;;;;;;22.22;30.26;98465.16;4966630;29;977;-78
2021/11/13 01:34:13;;;;;;;;;;;;;;;22.25;30.38;98461.47;4963827;29;968;-79
2021/11/13 01:36:38;;;;;;;;;;;;;;;22.55;30.74;98459.59;4967080;28;881;-78
2021/11/13 01:39:04;;;;;;;;;;;;;;;22.74;29.83;98458.75;4964676;29;840;-78
2021/11/13 01:41:29;;;;;;;;;;;;;;;22.59;30.01;98451.81;4966676;29;915;-78
2021/11/13 01:43:55;;;;;;;;;;;;;;;22.29;30.10;98456.53;4963519;29;1883;-78
2021/11/13 01:46:20;;;;;;;;;;;;;;;22.38;29.75;98455.13;4963651;29;950;-78
2021/11/13 01:48:46;;;;;;;;;;;;;;;22.24;29.95;98457.03;4943617;29;934;-78
2021/11/13 01:51:15;;;;;;;;;;;;;;;22.13;30.26;98464.19;4947689;29;922;-79
2021/11/13 01:53:40;;;;;;;;;;;;;;;22.29;30.93;98450.84;4960123;29;912;-78
2021/11/13 01:56:06;;;;;;;;;;;;;;;22.75;29.98;98454.66;4948011;29;952;-78
2021/11/13 01:58:31;;;;;;;;;;;;;;;22.56;29.83;98418.66;4943987;29;943;-78
2021/11/13 02:00:58;;;;;;;;;;;;;;;22.50;29.86;98460.13;4963834;29;956;-78
2021/11/13 02:03:24;;;;;;;;;;;;;;;22.36;29.87;98462.03;4953692;29;1919;-79
2021/11/13 02:05:50;;;;;;;;;;;;;;;22.45;29.73;98463.47;5004447;28;960;-78
2021/11/13 02:08:15;;;;;;;;;;;;;;;22.45;29.77;98469.16;5016752;28;927;-78
2021/11/13 02:10:41;;;;;;;;;;;;;;;21.95;30.57;98461.69;4984988;28;1190;-77
2021/11/13 02:13:06;;;;;;;;;;;;;;;22.31;30.33;98454.03;4983437;28;896;-78
2021/11/13 02:15:32;;;;;;;;;;;;;;;22.27;30.74;98452.53;4984552;28;979;-78
2021/11/13 02:17:57;;;;;;;;;;;;;;;22.65;30.15;98452.09;4998034;28;938;-78
2021/11/13 02:20:25;;;;;;;;;;;;;;;22.79;30.05;98461.03;4964629;29;893;-78
2021/11/13 02:22:51;;;;;;;;;;;;;;;22.52;30.21;98463.31;4964094;29;864;-78
2021/11/13 02:25:17;;;;;;;;;;;;;;;22.42;29.76;98459.47;4964226;29;1276;-78
2021/11/13 02:27:42;;;;;;;;;;;;;;;22.14;30.46;98469.41;4926286;29;1124;-78
2021/11/13 02:30:08;;;;;;;;;;;;;;;22.36;30.10;98464.88;4925989;29;912;-78
2021/11/13 02:32:34;;;;;;;;;;;;;;;22.19;30.57;98471.72;4908153;29;939;-79
2021/11/13 02:34:59;;;;;;;;;;;;;;;22.29;30.43;98476.38;4865139;29;978;-78
2021/11/13 02:37:28;;;;;;;;;;;;;;;22.24;30.38;98482.56;4839302;29;932;-78
2021/11/13 02:39:53;;;;;;;;;;;;;;;22.27;30.34;98480.88;4832093;29;1034;-79
2021/11/13 02:42:22;;;;;;;;;;;;;;;22.53;30.58;98481.91;4889842;29;963;-78
2021/11/13 02:44:48;;;;;;;;;;;;;;;22.66;30.07;98474.31;4902993;29;1919;-78
2021/11/13 02:47:13;;;;;;;;;;;;;;;22.56;30.24;98478.19;4890297;29;942;-78
2021/11/13 02:49:39;;;;;;;;;;;;;;;22.43;30.28;98485.78;4890647;29;971;-79
2021/11/13 02:52:04;;;;;;;;;;;;;;;22.09;30.34;98489.72;4893670;29;1366;-78
2021/11/13 02:54:30;;;;;;;;;;;;;;;22.42;29.88;98481.34;4891175;29;920;-78
2021/11/13 02:56:55;;;;;;;;;;;;;;;22.24;30.35;98491.06;4882896;29;959;-78
2021/11/13 02:59:20;;;;;;;;;;;;;;;22.50;29.74;98488.47;4972721;28;882;-78
2021/11/13 03:01:46;;;;;;;;;;;;;;;22.42;30.59;98495.53;4989235;28;932;-78
2021/11/13 03:04:12;;;;;;;;;;;;;;;22.69;30.22;98501.00;5002408;28;1887;-79
2021/11/13 03:06:38;;;;;;;;;;;;;;;22.77;29.84;98491.88;4991269;28;906;-79
2021/11/13 03:09:04;;;;;;;;;;;;;;;22.36;30.43;98490.38;5005888;28;1027;-78
2021/11/13 03:11:30;;;;;;;;;;;;;;;22.17;30.26;98499.69;5007072;28;1274;-78
2021/11/13 03:13:56;;;;;;;;;;;;;;;22.25;30.16;98495.50;5020300;28;961;-79
2021/11/13 03:16:21;;;;;;;;;;;;;;;22.26;30.41;98491.41;5028781;28;894;-78
2021/11/13 03:18:47;;;;;;;;;;;;;;;22.16;30.59;98497.31;5004487;28;917;-78
2021/11/13 03:21:12;;;;;;;;;;;;;;;22.30;30.47;98491.34;4984304;28;978;-78
2021/11/13 03:23:39;;;;;;;;;;;;;;;22.39;29.96;98493.59;4984583;28;1910;-78
2021/11/13 03:26:08;;;;;;;;;;;;;;;22.43;30.81;98488.63;4989407;28;980;-78
2021/11/13 03:28:36;;;;;;;;;;;;;;;22.55;30.49;98502.13;4985340;28;1325;-78
2021/11/13 03:31:02;;;;;;;;;;;;;;;22.75;29.88;98494.38;4989585;28;854;-79
2021/11/13 03:33:31;;;;;;;;;;;;;;;22.40;30.22;98501.66;4984786;28;916;-78
2021/11/13 03:35:56;;;;;;;;;;;;;;;22.16;30.53;98498.09;4988909;28;1062;-78
2021/11/13 03:38:22;;;;;;;;;;;;;;;22.17;30.11;98494.03;4984842;28;1225;-78
2021/11/13 03:40:48;;;;;;;;;;;;;;;22.21;29.80;98494.75;4987952;28;1002;-78
2021/11/13 03:43:16;;;;;;;;;;;;;;;22.36;30.05;98496.03;4991825;28;1898;-79
2021/11/13 03:45:42;;;;;;;;;;;;;;;22.35;29.83;98494.47;5026672;28;891;-78
2021/11/13 03:48:07;;;;;;;;;;;;;;;22.26;30.37;98494.25;5024435;28;1110;-79
2021/11/13 03:50:34;;;;;;;;;;;;;;;22.28;30.24;98499.50;5042980;28;876;-79
2021/11/13 03:52:59;;;;;;;;;;;;;;;22.19;30.23;98502.91;5027787;28;921;-79
2021/11/13 03:55:28;;;;;;;;;;;;;;;22.48;30.70;98505.13;5042943;28;925;-79
2021/11/13 03:57:54;;;;;;;;;;;;;;;22.63;30.57;98506.41;5028921;28;1008;-79
2021/11/13 04:00:20;;;;;;;;;;;;;;;22.71;30.23;98507.03;4986558;28;900;-79
2021/11/13 04:02:46;;;;;;;;;;;;;;;22.44;30.35;98508.06;4986243;28;926;-79
2021/11/13 04:05:12;;;;;;;;;;;;;;;22.29;30.60;98509.59;4985469;28;1918;-79
2021/11/13 04:07:37;;;;;;;;;;;;;;;22.16;30.14;98503.78;4986919;28;928;-79
2021/11/13 04:10:04;;;;;;;;;;;;;;;22.34;31.05;98514.75;4965391;29;1134;-79
2021/11/13 04:12:29;;;;;;;;;;;;;;;22.69;30.46;98501.00;4967864;29;919;-79
2021/11/13 04:14:55;;;;;;;;;;;;;;;22.72;30.24;98511.47;4965464;29;925;-79
2021/11/13 04:17:20;;;;;;;;;;;;;;;22.22;30.77;98516.19;4973981;28;943;-79
2021/11/13 04:19:46;;;;;;;;;;;;;;;22.18;30.26;98512.66;5004349;28;935;-79
2021/11/13 04:22:11;;;;;;;;;;;;;;;22.19;30.37;98511.41;5007012;28;896;-79
2021/11/13 04:24:36;;;;;;;;;;;;;;;22.53;30.80;98510.25;5004707;28;1991;-80
2021/11/13 04:27:02;;;;;;;;;;;;;;;22.75;30.26;98511.41;5006555;28;973;-80
2021/11/13 04:29:27;;;;;;;;;;;;;;;22.75;29.78;98511.41;5004213;28;892;-79
2021/11/13 04:31:53;;;;;;;;;;;;;;;22.56;29.84;98501.69;5021244;28;875;-79
2021/11/13 04:34:22;;;;;;;;;;;;;;;22.52;29.64;98508.69;5007279;28;799;-79
2021/11/13 04:36:51;;;;;;;;;;;;;;;22.44;29.88;98512.94;5025902;28;908;-80
2021/11/13 04:39:17;;;;;;;;;;;;;;;22.17;30.52;98513.88;5007907;28;1330;-79
2021/11/13 04:41:42;;;;;;;;;;;;;;;22.35;29.97;98517.13;5057424;28;889;-79
2021/11/13 04:44:08;;;;;;;;;;;;;;;22.11;30.53;98524.13;5004327;28;1902;-79
2021/11/13 04:46:33;;;;;;;;;;;;;;;22.24;30.46;98522.25;4965456;28;988;-79
2021/11/13 04:48:58;;;;;;;;;;;;;;;22.24;30.46;98519.41;4925893;29;1018;-79
2021/11/13 04:51:25;;;;;;;;;;;;;;;22.27;30.51;98527.03;4929315;29;892;-79
2021/11/13 04:53:51;;;;;;;;;;;;;;;22.44;31.04;98518.59;4926271;29;979;-79
2021/11/13 04:56:16;;;;;;;;;;;;;;;22.58;30.73;98515.41;4929380;29;1395;-79
2021/11/13 04:58:42;;;;;;;;;;;;;;;22.52;30.59;98514.34;4925524;29;1001;-79
2021/11/13 05:01:08;;;;;;;;;;;;;;;22.31;30.38;98516.41;4929610;29;969;-79
2021/11/13 05:03:33;;;;;;;;;;;;;;;22.32;30.24;98515.16;4909352;29;1966;-79
2021/11/13 05:05:58;;;;;;;;;;;;;;;22.33;30.35;98513.16;4929117;29;908;-79
2021/11/13 05:08:24;;;;;;;;;;;;;;;22.28;30.40;98528.66;4891006;29;1250;-79
2021/11/13 05:10:50;;;;;;;;;;;;;;;22.30;30.49;98531.81;4893948;29;1224;-79
2021/11/13 05:13:17;;;;;;;;;;;;;;;22.24;30.79;98521.44;4907523;29;954;-79
2021/11/13 05:15:42;;;;;;;;;;;;;;;22.40;30.97;98523.53;4909370;29;801;-79
2021/11/13 05:18:08;;;;;;;;;;;;;;;22.59;30.58;98517.03;4921354;29;959;-79
2021/11/13 05:20:33;;;;;;;;;;;;;;;22.50;30.24;98522.50;4932939;28;851;-79
2021/11/13 05:22:58;;;;;;;;;;;;;;;22.35;30.01;98531.31;4971788;28;1978;-80
2021/11/13 05:25:24;;;;;;;;;;;;;;;22.39;29.58;98534.09;4950072;28;961;-79
2021/11/13 05:27:49;;;;;;;;;;;;;;;22.29;30.62;98532.28;4999477;28;869;-79
2021/11/13 05:30:15;;;;;;;;;;;;;;;22.39;30.40;98538.97;5003554;28;1039;-79
2021/11/13 05:32:41;;;;;;;;;;;;;;;22.60;30.08;98544.16;5004400;28;866;-80
2021/11/13 05:35:07;;;;;;;;;;;;;;;22.47;29.38;98551.72;4986863;28;819;-79
2021/11/13 05:37:32;;;;;;;;;;;;;;;22.27;29.68;98561.03;4985655;28;925;-79
2021/11/13 05:39:58;;;;;;;;;;;;;;;22.24;29.34;98563.97;4983503;28;918;-79
2021/11/13 05:42:24;;;;;;;;;;;;;;;22.34;30.34;98555.25;4985592;28;968;-79
2021/11/13 05:44:49;;;;;;;;;;;;;;;22.63;29.55;98568.78;4969478;28;1966;-79
2021/11/13 05:47:15;;;;;;;;;;;;;;;22.68;29.53;98556.94;4972736;28;1282;-79
2021/11/13 05:49:40;;;;;;;;;;;;;;;22.30;29.85;98565.84;5002624;28;780;-80
2021/11/13 05:52:06;;;;;;;;;;;;;;;22.11;29.76;98569.47;5004792;28;963;-79
2021/11/13 05:54:31;;;;;;;;;;;;;;;22.26;29.44;98570.78;5003052;28;861;-79
2021/11/13 05:56:57;;;;;;;;;;;;;;;22.35;29.17;98573.84;5034358;28;1090;-78
2021/11/13 05:59:22;;;;;;;;;;;;;;;22.52;30.34;98582.41;5025529;28;988;-79
2021/11/13 06:01:48;;;;;;;;;;;;;;;22.58;30.32;98569.31;5044344;28;894;-79
2021/11/13 06:04:13;;;;;;;;;;;;;;;22.73;30.05;98564.91;5041426;28;1993;-79
2021/11/13 06:06:39;;;;;;;;;;;;;;;22.49;29.95;98574.78;5027740;28;905;-80
2021/11/13 06:09:04;;;;;;;;;;;;;;;22.32;29.82;98580.38;5041771;28;894;-79
2021/11/13 06:11:30;;;;;;;;;;;;;;;22.16;30.28;98583.13;5028027;28;1260;-79
2021/11/13 06:13:58;;;;;;;;;;;;;;;22.22;30.13;98575.72;5042160;28;879;-79
2021/11/13 06:16:23;;;;;;;;;;;;;;;22.30;30.40;98584.91;5044743;28;974;-79
2021/11/13 06:18:49;;;;;;;;;;;;;;;22.32;30.18;98580.38;5056576;28;789;-80
2021/11/13 06:21:14;;;;;;;;;;;;;;;22.41;30.23;98587.50;5063810;28;905;-79
2021/11/13 06:23:44;;;;;;;;;;;;;;;22.11;30.53;98580.81;5060540;28;1909;-79
2021/11/13 06:26:10;;;;;;;;;;;;;;;22.04;30.92;98592.25;5044891;28;897;-79
2021/11/13 06:28:35;;;;;;;;;;;;;;;22.44;31.28;98587.44;5040095;28;968;-79
2021/11/13 06:31:01;;;;;;;;;;;;;;;22.64;30.49;98578.94;4986031;28;1167;-79
2021/11/13 06:33:26;;;;;;;;;;;;;;;22.49;30.25;98580.47;4943007;29;1062;-80
2021/11/13 06:35:52;;;;;;;;;;;;;;;22.24;30.56;98575.31;4927975;29;969;-79
2021/11/13 06:38:18;;;;;;;;;;;;;;;22.01;30.40;98581.78;4925111;29;987;-80
2021/11/13 06:40:45;;;;;;;;;;;;;;;22.27;31.22;98583.72;4927555;29;900;-79
2021/11/13 06:43:11;;;;;;;;;;;;;;;22.55;30.38;98579.50;4925755;29;1974;-80
2021/11/13 06:45:37;;;;;;;;;;;;;;;22.71;29.81;98590.09;4927386;29;961;-79
2021/11/13 06:48:03;;;;;;;;;;;;;;;22.44;29.74;98598.78;4928647;29;1002;-79
2021/11/13 06:50:28;;;;;;;;;;;;;;;22.21;29.70;98591.13;4945243;29;937;-79
2021/11/13 06:52:54;;;;;;;;;;;;;;;22.24;29.74;98592.31;4945733;29;913;-79
2021/11/13 06:55:19;;;;;;;;;;;;;;;22.46;30.69;98601.97;4945293;29;958;-79
2021/11/13 06:57:44;;;;;;;;;;;;;;;22.51;30.32;98587.28;4940546;29;977;-79
2021/11/13 07:00:11;;;;;;;;;;;;;;;22.73;29.75;98593.28;4944065;29;1431;-79
2021/11/13 07:02:37;;;;;;;;;;;;;;;22.32;29.74;98591.72;4926222;29;987;-79
2021/11/13 07:05:03;;;;;;;;;;;;;;;22.32;29.87;98600.22;4892235;29;1907;-79
2021/11/13 07:07:32;;;;;;;;;;;;;;;22.22;29.31;98606.91;4889334;29;961;-79
2021/11/13 07:09:58;;;;;;;;;;;;;;;22.40;30.22;98609.41;4888061;29;1306;-80
2021/11/13 07:12:23;;;;;;;;;;;;;;;22.57;29.68;98601.75;4889753;29;975;-79
2021/11/13 07:14:48;;;;;;;;;;;;;;;22.83;29.06;98595.09;4887066;29;1234;-79
2021/11/13 07:17:14;;;;;;;;;;;;;;;22.23;29.63;98594.34;4889017;29;942;-79
2021/11/13 07:19:40;;;;;;;;;;;;;;;22.25;29.33;98588.25;4901355;29;988;-79
2021/11/13 07:22:06;;;;;;;;;;;;;;;21.99;29.43;98593.56;4888715;29;1009;-80
2021/11/13 07:24:31;;;;;;;;;;;;;;;22.44;29.74;98598.00;4924506;29;1895;-79
2021/11/13 07:26:57;;;;;;;;;;;;;;;22.67;29.21;98592.22;4925532;29;1148;-79
2021/11/13 07:29:27;;;;;;;;;;;;;;;22.43;29.28;98600.00;4924409;29;1075;-79
2021/11/13 07:31:53;;;;;;;;;;;;;;;22.31;29.53;98595.78;4942344;29;1567;-79
2021/11/13 07:34:18;;;;;;;;;;;;;;;22.35;29.53;98596.53;4931620;29;916;-80
2021/11/13 07:36:44;;;;;;;;;;;;;;;22.36;30.14;98592.44;4930681;29;912;-80
2021/11/13 07:39:09;;;;;;;;;;;;;;;22.54;29.73;98589.25;4925442;29;969;-79
2021/11/13 07:41:34;;;;;;;;;;;;;;;22.55;29.98;98595.72;4911068;29;937;-79
2021/11/13 07:44:00;;;;;;;;;;;;;;;22.45;29.53;98591.06;4908796;29;1898;-80
2021/11/13 07:46:26;;;;;;;;;;;;;;;22.24;29.78;98595.94;4892520;29;1257;-79
2021/11/13 07:48:52;;;;;;;;;;;;;;;22.33;29.24;98593.34;4889067;29;1083;-79
2021/11/13 07:51:18;;;;;;;;;;;;;;;22.31;29.52;98587.28;4893606;29;998;-79
2021/11/13 07:53:44;;;;;;;;;;;;;;;22.34;29.46;98589.25;4905500;29;948;-79
2021/11/13 07:56:09;;;;;;;;;;;;;;;22.25;29.85;98582.56;4901197;29;997;-79
2021/11/13 07:58:35;;;;;;;;;;;;;;;22.38;30.71;98591.22;4952061;29;930;-79
2021/11/13 08:01:01;;;;;;;;;;;;;;;22.56;30.12;98588.81;4969623;28;1128;-77
2021/11/13 08:03:27;;;;;;;;;;;;;;;22.57;29.99;98590.41;5007720;28;1962;-77
2021/11/13 08:05:52;;;;;;;;;;;;;;;22.30;30.29;98588.53;4988034;28;908;-77
2021/11/13 08:08:18;;;;;;;;;;;;;;;22.27;30.01;98583.72;4984637;28;1033;-77
2021/11/13 08:10:45;;;;;;;;;;;;;;;22.51;29.35;98586.50;4987165;28;1221;-77
2021/11/13 08:13:11;;;;;;;;;;;;;;;22.39;29.84;98595.66;4964175;29;925;-77
2021/11/13 08:15:37;;;;;;;;;;;;;;;22.18;30.24;98594.84;4928862;29;1293;-77
2021/11/13 08:18:03;;;;;;;;;;;;;;;22.29;30.21;98589.78;4956978;28;912;-77
2021/11/13 08:20:30;;;;;;;;;;;;;;;22.54;30.57;98592.09;4932770;29;840;-77
2021/11/13 08:22:55;;;;;;;;;;;;;;;22.75;30.05;98584.38;4943386;29;954;-77
2021/11/13 08:25:21;;;;;;;;;;;;;;;22.72;29.62;98580.34;4907761;29;1918;-78
2021/11/13 08:27:46;;;;;;;;;;;;;;;22.48;30.03;98576.81;4908835;29;994;-77
2021/11/13 08:30:12;;;;;;;;;;;;;;;22.14;30.52;98590.50;4907975;29;911;-77
2021/11/13 08:32:37;;;;;;;;;;;;;;;22.19;30.34;98587.94;4909648;29;940;-77
2021/11/13 08:35:03;;;;;;;;;;;;;;;22.18;30.24;98586.34;4907712;29;862;-77
2021/11/13 08:37:28;;;;;;;;;;;;;;;22.47;30.84;98591.44;4939069;29;958;-77
2021/11/13 08:39:54;;;;;;;;;;;;;;;22.68;30.45;98579.63;4945206;29;880;-77
2021/11/13 08:42:20;;;;;;;;;;;;;;;22.59;30.05;98583.06;4947652;29;912;-77
2021/11/13 08:44:45;;;;;;;;;;;;;;;22.41;30.32;98581.84;4922418;29;1891;-77
2021/11/13 08:47:11;;;;;;;;;;;;;;;22.37;30.20;98587.56;4909427;29;916;-77
2021/11/13 08:49:37;;;;;;;;;;;;;;;22.36;30.46;98583.16;4909132;29;924;-78
2021/11/13 08:52:03;;;;;;;;;;;;;;;22.58;30.84;98575.78;4934347;28;926;-78
2021/11/13 08:54:29;;;;;;;;;;;;;;;22.72;30.14;98571.84;4983941;28;971;-77
2021/11/13 08:56:54;;;;;;;;;;;;;;;22.47;30.22;98574.41;4986282;28;1230;-77
2021/11/13 08:59:20;;;;;;;;;;;;;;;22.41;29.91;98579.00;4964129;29;937;-77
2021/11/13 09:01:45;;;;;;;;;;;;;;;22.55;29.54;98581.53;4929691;29;1122;-77
2021/11/13 09:04:11;;;;;;;;;;;;;;;22.26;30.09;98570.00;4945235;29;1900;-77
2021/11/13 09:06:36;;;;;;;;;;;;;;;22.55;30.79;98567.38;4946804;29;848;-77
2021/11/13 09:09:02;;;;;;;;;;;;;;;22.68;30.28;98565.44;4945057;29;891;-77
2021/11/13 09:11:28;;;;;;;;;;;;;;;22.60;30.12;98572.53;4906240;29;1201263;-77
2021/11/13 09:13:55;;;;;;;;;;;;;;;22.39;30.29;98570.16;4944717;29;960;-77
2021/11/13 09:16:20;;;;;;;;;;;;;;;22.14;30.45;98574.28;4949299;29;881;-77
2021/11/13 09:18:46;;;;;;;;;;;;;;;22.10;30.65;98573.50;4945555;29;942;-77
2021/11/13 09:21:11;;;;;;;;;;;;;;;22.30;31.43;98565.84;4949371;29;894;-77
2021/11/13 09:23:37;;;;;;;;;;;;;;;22.73;30.44;98564.91;4960119;29;1902;-77
2021/11/13 09:26:02;;;;;;;;;;;;;;;22.50;30.25;98559.38;4948742;29;909;-77
2021/11/13 09:28:28;;;;;;;;;;;;;;;22.47;30.10;98557.41;4924970;29;1054;-77
2021/11/13 09:30:54;;;;;;;;;;;;;;;22.39;29.99;98567.31;4928668;29;927;-77
2021/11/13 09:33:19;;;;;;;;;;;;;;;22.28;30.16;98562.66;4927324;29;990;-77
2021/11/13 09:35:45;;;;;;;;;;;;;;;22.41;29.51;98564.81;4947781;29;895;-77
2021/11/13 09:38:11;;;;;;;;;;;;;;;22.50;29.79;98548.03;4959237;28;959;-77
2021/11/13 09:40:36;;;;;;;;;;;;;;;22.16;30.21;98556.81;5004680;28;956;-78
2021/11/13 09:43:02;;;;;;;;;;;;;;;22.31;30.20;98553.25;4983726;28;914;-78
2021/11/13 09:45:28;;;;;;;;;;;;;;;22.61;30.82;98557.91;4965004;29;1910;-77
2021/11/13 09:47:53;;;;;;;;;;;;;;;22.66;30.85;98553.75;4985158;28;946;-78
2021/11/13 09:50:19;;;;;;;;;;;;;;;22.64;30.25;98550.56;4984106;28;909;-78
2021/11/13 09:52:45;;;;;;;;;;;;;;;22.54;30.41;98534.56;4930077;29;1133;-78
2021/11/13 09:55:10;;;;;;;;;;;;;;;21.96;30.92;98540.56;4922319;29;1200;-77
2021/11/13 09:57:37;;;;;;;;;;;;;;;22.10;30.71;98545.16;4924155;29;937;-77
2021/11/13 10:00:07;;;;;;;;;;;;;;;22.16;30.31;98543.44;4923975;29;919;-77
2021/11/13 10:02:37;;;;;;;;;;;;;;;22.18;30.40;98529.66;4926918;29;954;-77
2021/11/13 10:05:02;;;;;;;;;;;;;;;22.20;30.36;98537.72;4925657;29;1915;-78
2021/11/13 10:07:30;;;;;;;;;;;;;;;22.18;30.57;98529.66;4927570;29;1177;-77
2021/11/13 10:09:55;;;;;;;;;;;;;;;22.40;30.77;98524.34;4910931;29;1159;-78
2021/11/13 10:12:32;;;;;;;;;;;;;;;22.66;30.66;98530.25;4910363;29;1191;-78
2021/11/13 10:14:58;;;;;;;;;;;;;;;22.64;30.52;98527.88;4900913;29;2153;-77
2021/11/13 10:17:24;;;;;;;;;;;;;;;22.84;30.41;98527.78;4890290;29;968;-77
2021/11/13 10:19:49;;;;;;;;;;;;;;;22.67;29.89;98523.34;4907698;29;1003;-78
2021/11/13 10:22:15;;;;;;;;;;;;;;;22.21;30.60;98523.09;4935318;29;909;-78
2021/11/13 10:24:50;;;;;;;;;;;;;;;22.20;30.43;98526.38;4963664;29;1887;-77
2021/11/13 10:27:15;;;;;;;;;;;;;;;22.47;30.33;98524.16;4968790;28;1033;-78
2021/11/13 10:29:41;;;;;;;;;;;;;;;22.34;30.15;98520.41;4982858;28;1026;-77
2021/11/13 10:32:16;;;;;;;;;;;;;;;22.32;30.11;98518.00;4985159;28;897;-77
2021/11/13 10:34:43;;;;;;;;;;;;;;;22.32;30.21;98523.66;4982535;28;989;-79
2021/11/13 10:37:10;;;;;;;;;;;;;;;22.30;30.41;98514.81;5002014;28;1354;-78
2021/11/13 10:39:36;;;;;;;;;;;;;;;22.24;30.22;98470.41;4983838;28;892;-77
2021/11/13 10:42:03;;;;;;;;;;;;;;;22.58;31.09;98512.59;4969484;28;992;-78
2021/11/13 10:44:30;;;;;;;;;;;;;;;22.77;30.16;98508.91;4980274;28;1987;-78
2021/11/13 10:46:59;;;;;;;;;;;;;;;22.43;30.52;98511.31;4965241;29;923;-76
2021/11/13 10:49:25;;;;;;;;;;;;;;;22.27;30.43;98507.19;4925674;29;952;-78
2021/11/13 10:51:54;;;;;;;;;;;;;;;22.25;30.55;98506.81;4928309;29;980;-78
2021/11/13 10:54:21;;;;;;;;;;;;;;;22.31;30.16;98510.75;4906218;29;897;-78
2021/11/13 10:56:47;;;;;;;;;;;;;;;22.59;30.99;98514.22;4909167;29;885;-78
2021/11/13 10:59:13;;;;;;;;;;;;;;;22.63;30.47;98498.69;4906518;29;941;-78
2021/11/13 11:01:57;;;;;;;;;;;;;;;22.54;30.24;98506.22;4907398;29;889;-78
2021/11/13 11:04:23;;;;;;;;;;;;;;;22.26;30.68;98499.91;4887553;29;1888;-78
2021/11/13 11:06:49;;;;;;;;;;;;;;;22.25;30.57;98494.69;4890178;29;1023;-77
2021/11/13 11:09:22;;;;;;;;;;;;;;;22.13;30.57;98495.38;4890360;29;820;-78
2021/11/13 11:11:48;;;;;;;;;;;;;;;22.41;31.03;98496.78;4893206;29;1252;-78
2021/11/13 11:14:15;;;;;;;;;;;;;;;22.61;30.74;98506.03;4891319;29;1251;-78
2021/11/13 11:16:42;;;;;;;;;;;;;;;22.74;30.04;98492.78;4899841;29;924;-78
2021/11/13 11:19:08;;;;;;;;;;;;;;;22.39;30.64;98490.75;4909795;29;1113;-78
2021/11/13 11:21:36;;;;;;;;;;;;;;;22.45;30.38;98491.84;4911577;29;928;-78
2021/11/13 11:24:21;;;;;;;;;;;;;;;22.23;30.46;98480.97;4928820;29;1911;-78
2021/11/13 11:26:47;;;;;;;;;;;;;;;22.14;30.43;98486.41;4930513;29;1184;-78
2021/11/13 11:29:12;;;;;;;;;;;;;;;22.32;30.08;98489.66;4927345;29;946;-78
2021/11/13 11:31:43;;;;;;;;;;;;;;;22.30;30.21;98492.13;4911881;29;961;-78
2021/11/13 11:34:21;;;;;;;;;;;;;;;22.53;30.78;98493.25;4910419;29;832;-78
2021/11/13 11:36:46;;;;;;;;;;;;;;;22.77;30.28;98491.09;4874341;29;837;-78
2021/11/13 11:39:12;;;;;;;;;;;;;;;22.52;30.21;98491.66;4871865;29;853;-78
2021/11/13 11:41:37;;;;;;;;;;;;;;;22.03;31.00;98492.28;4873556;29;1441;-78
2021/11/13 11:44:03;;;;;;;;;;;;;;;22.38;30.12;98491.97;4855955;29;1915;-78
2021/11/13 11:46:28;;;;;;;;;;;;;;;22.34;30.08;98492.88;4855416;29;932;-78
2021/11/13 11:48:55;;;;;;;;;;;;;;;22.16;30.56;98486.75;4908681;29;885;-77
2021/11/13 11:51:20;;;;;;;;;;;;;;;22.08;30.74;98485.31;4949927;29;994;-77
2021/11/13 11:53:45;;;;;;;;;;;;;;;22.45;30.82;98494.66;4945658;29;1177;-78
2021/11/13 11:56:11;;;;;;;;;;;;;;;22.60;30.48;98490.28;4950732;29;879;-78
2021/11/13 11:58:36;;;;;;;;;;;;;;;22.57;30.09;98482.63;4930324;29;922;-78
2021/11/13 12:01:03;;;;;;;;;;;;;;;22.41;30.33;98483.41;4930233;29;1013;-78
2021/11/13 12:03:35;;;;;;;;;;;;;;;22.27;30.31;98478.81;4908316;29;1918;-78
2021/11/13 12:06:01;;;;;;;;;;;;;;;22.11;30.43;98481.59;4930772;29;995;-78
2021/11/13 12:08:27;;;;;;;;;;;;;;;22.27;30.40;98481.66;4910917;29;978;-78
2021/11/13 12:10:53;;;;;;;;;;;;;;;22.54;30.88;98477.84;4911377;29;1029;-78
2021/11/13 12:13:28;;;;;;;;;;;;;;;22.72;30.37;98466.88;4923941;29;876;-78
2021/11/13 12:15:54;;;;;;;;;;;;;;;22.74;29.90;98475.75;4929955;29;920;-78
2021/11/13 12:18:26;;;;;;;;;;;;;;;22.28;30.79;98477.63;4919832;29;1025;-78
2021/11/13 12:20:52;;;;;;;;;;;;;;;22.31;30.23;98475.94;4924244;29;949;-78
2021/11/13 12:23:31;;;;;;;;;;;;;;;22.29;30.17;98490.53;4848463;29;1982;-78
2021/11/13 12:26:01;;;;;;;;;;;;;;;22.31;30.94;98482.38;4892704;29;946;-78
2021/11/13 12:28:27;;;;;;;;;;;;;;;22.60;30.87;98481.75;4906867;29;914;-78
2021/11/13 12:30:53;;;;;;;;;;;;;;;22.75;30.38;98477.34;4917863;29;954;-78
2021/11/13 12:33:43;;;;;;;;;;;;;;;22.44;30.56;98478.91;4925883;29;1188;-78
2021/11/13 12:36:13;;;;;;;;;;;;;;;22.15;30.55;98473.84;4914847;29;1273;-78
2021/11/13 12:38:39;;;;;;;;;;;;;;;22.38;30.33;98474.97;4926252;29;900;-78
2021/11/13 12:41:05;;;;;;;;;;;;;;;22.40;29.86;98472.50;4946307;29;1215;-78
2021/11/13 12:43:47;;;;;;;;;;;;;;;22.26;30.57;98480.06;4926003;29;1896;-78
2021/11/13 12:46:32;;;;;;;;;;;;;;;22.33;30.47;98468.59;4930143;29;998;-78
2021/11/13 12:49:16;;;;;;;;;;;;;;;22.51;31.27;98473.06;4926437;29;842;-78
2021/11/13 12:51:44;;;;;;;;;;;;;;;22.70;30.83;98477.88;4929148;29;941;-78
2021/11/13 12:54:16;;;;;;;;;;;;;;;22.49;30.23;98476.34;4946452;29;1384;-78
2021/11/13 12:56:42;;;;;;;;;;;;;;;22.23;30.75;98469.63;4941527;29;869;-78
2021/11/13 12:59:13;;;;;;;;;;;;;;;22.33;30.48;98467.78;4883093;29;945;-78